Upstream stations:
SHEF ID: TIFM7 Elk River near Tiff City, Mo
STATION TYPE:
Regulating: Stage = 15.00, Flow = 21304
PRECIP STAGE STAGE(2) RIV-FLOW BAT-LOAD
in ft ft cfs volt
Ccp-Rev Ccp-Rev Ccp-Rev Ccp-Rev Ccp-Rev
(US/Central)
03/21 00:00 0.00 4.22 4.21 638 11.68
03/21 01:00 0.00 4.22 4.21 638 11.68
03/21 02:00 0.00 4.22 4.21 638 11.66
03/21 03:00 0.00 4.22 4.21 638 11.64
03/21 04:00 0.00 4.21 4.20 632 11.63
03/21 05:00 0.00 4.21 4.20 632 11.62
03/21 06:00 0.00 4.21 4.20 632 11.60
03/21 07:00 0.00 4.21 4.20 632 11.52
03/21 08:00 0.00 4.21 4.20 632 11.52
03/21 09:00 0.00 4.21 4.20 632 12.10
03/21 10:00 0.00 4.21 4.21 632 12.60
03/21 11:00 0.00 4.21 4.21 632 12.34
03/21 12:00 0.01 4.21 4.18 632 12.51
03/21 13:00 0.00 4.21 4.19 632 12.54
03/21 14:00 0.06 4.22 4.17 638 12.34
03/21 15:00 0.03 4.22 4.20 638 12.14
03/21 16:00 0.10 4.22 4.19 638 11.91
03/21 17:00 0.40 4.26 4.21 662 11.81
03/21 18:00 0.25 4.27 4.23 668 11.81
03/21 19:00 0.09 4.28 4.24 674 11.81
03/21 20:00 0.00 4.30 4.25 686 11.72
03/21 21:00 0.07 4.32 4.26 699 11.71
03/21 22:00 0.34 4.37 4.31 730 11.68
03/21 23:00 0.19 4.44 4.40 775 11.66